Time;durP1;ratioP1;P1;durP2;ratioP2;P2;SDS_P1;SDS_P2;PMS_P1;PMS_P2;Temp;Humidity;BMP_temperature;BMP_pressure;BME280_temperature;BME280_humidity;BME280_pressure;Samples;Min_cycle;Max_cycle;Signal;HPM_P1;HPM_P2
2023/08/20 00:01:02;;;;;;;39.42;31.58;;;27.60;96.10;;;;;;5054095;28;20048;-69
2023/08/20 00:04:07;;;;;;;35.05;25.73;;;27.50;96.20;;;;;;5053964;28;20056;-69
2023/08/20 00:07:11;;;;;;;33.00;19.95;;;27.50;96.50;;;;;;5053960;28;20523;-69
2023/08/20 00:10:15;;;;;;;30.45;19.10;;;27.50;95.70;;;;;;5053958;28;20036;-70
2023/08/20 00:13:19;;;;;;;26.00;19.50;;;27.60;95.30;;;;;;5053524;28;20056;-69
2023/08/20 00:16:23;;;;;;;28.85;19.88;;;27.70;95.00;;;;;;5053303;28;20397;-69
2023/08/20 00:19:27;;;;;;;26.33;20.42;;;27.70;94.80;;;;;;5053445;28;20048;-69
2023/08/20 00:22:32;;;;;;;24.88;19.48;;;27.70;94.80;;;;;;5053773;28;20048;-69
2023/08/20 00:25:36;;;;;;;30.10;20.80;;;27.60;95.20;;;;;;5053186;28;20404;-70
2023/08/20 00:28:40;;;;;;;30.75;21.38;;;27.60;95.10;;;;;;5053142;28;20044;-69
2023/08/20 00:31:44;;;;;;;31.95;22.85;;;27.40;95.30;;;;;;5052230;28;20063;-69
2023/08/20 00:34:48;;;;;;;33.40;22.17;;;27.30;95.50;;;;;;5053299;28;20044;-69
2023/08/20 00:37:52;;;;;;;35.40;21.23;;;27.10;95.90;;;;;;5051979;28;20408;-69
2023/08/20 00:40:55;;;;;;;36.88;23.77;;;27.10;96.00;;;;;;5053057;28;20401;-69
2023/08/20 00:43:59;;;;;;;36.63;23.98;;;27.10;96.10;;;;;;5053133;28;20051;-69
2023/08/20 00:47:05;;;;;;;28.83;22.52;;;27.10;96.20;;;;;;5051897;28;20072;-69
2023/08/20 00:50:09;;;;;;;30.73;22.35;;;27.10;96.20;;;;;;5051915;28;20393;-69
2023/08/20 00:53:14;;;;;;;33.25;22.70;;;27.20;96.20;;;;;;5052603;28;20044;-68
2023/08/20 00:56:18;;;;;;;32.33;23.67;;;27.20;96.10;;;;;;5053268;28;20040;-69
2023/08/20 00:59:23;;;;;;;35.30;22.92;;;27.30;96.10;;;;;;5052599;28;20149;-69
2023/08/20 01:02:26;;;;;;;42.63;27.77;;;27.30;96.00;;;;;;5052465;28;20496;-69
2023/08/20 01:05:35;;;;;;;45.63;32.60;;;27.30;96.20;;;;;;5051695;28;20071;-69
2023/08/20 01:08:41;;;;;;;49.67;34.83;;;27.30;96.20;;;;;;5051889;28;20055;-68
2023/08/20 01:11:51;;;;;;;57.00;39.20;;;27.30;96.10;;;;;;5052466;28;20048;-69
2023/08/20 01:14:55;;;;;;;57.53;42.65;;;27.20;96.20;;;;;;5040229;28;20048;-69
2023/08/20 01:17:59;;;;;;;59.35;41.28;;;27.10;96.40;;;;;;5052229;28;20048;-69
2023/08/20 01:21:17;;;;;;;48.13;35.78;;;27.10;96.60;;;;;;5052448;28;20047;-69
2023/08/20 01:24:28;;;;;;;42.63;33.53;;;27.00;96.40;;;;;;5051497;28;20428;-69
2023/08/20 01:27:51;;;;;;;50.80;35.33;;;26.90;96.90;;;;;;5052608;28;20052;-69
2023/08/20 01:30:57;;;;;;;42.83;31.83;;;26.80;96.80;;;;;;5052203;28;20048;-70
2023/08/20 01:34:02;;;;;;;42.20;30.77;;;26.80;96.80;;;;;;5051244;28;20392;-69
2023/08/20 01:37:06;;;;;;;46.50;35.33;;;26.80;96.90;;;;;;5051647;28;20064;-69
2023/08/20 01:40:13;;;;;;;45.65;32.42;;;26.80;96.90;;;;;;5052025;28;20059;-69
2023/08/20 01:43:17;;;;;;;44.97;31.92;;;26.80;96.70;;;;;;5052092;28;20107;-68
2023/08/20 01:46:21;;;;;;;35.60;27.30;;;26.70;96.60;;;;;;5051998;28;20127;-69
2023/08/20 01:49:28;;;;;;;37.53;24.55;;;26.70;96.70;;;;;;5051187;28;20036;-68
2023/08/20 01:52:33;;;;;;;25.52;18.45;;;26.80;96.20;;;;;;5052278;28;20071;-68
2023/08/20 01:55:36;;;;;;;18.42;16.52;;;26.80;95.70;;;;;;5051699;28;20052;-68
2023/08/20 01:58:40;;;;;;;24.30;16.33;;;26.80;95.00;;;;;;5050995;28;20048;-69
2023/08/20 02:01:44;;;;;;;20.08;16.33;;;26.80;95.20;;;;;;5050708;28;20060;-68
2023/08/20 02:04:48;;;;;;;23.67;16.00;;;26.90;95.30;;;;;;5050851;28;20393;-69
2023/08/20 02:07:54;;;;;;;21.63;15.07;;;26.90;95.20;;;;;;5039543;28;20052;-69
2023/08/20 02:11:02;;;;;;;20.45;14.80;;;26.80;95.00;;;;;;5050459;28;20044;-68
2023/08/20 02:14:06;;;;;;;15.88;11.68;;;26.70;94.70;;;;;;5051160;28;20059;-69
2023/08/20 02:17:12;;;;;;;22.50;12.50;;;26.60;93.80;;;;;;5050800;28;20044;-68
2023/08/20 02:20:15;;;;;;;13.90;11.75;;;26.60;93.70;;;;;;5051548;28;20043;-68
2023/08/20 02:23:20;;;;;;;15.10;12.93;;;26.70;93.60;;;;;;5051189;28;20278;-70
2023/08/20 02:26:24;;;;;;;20.48;12.95;;;26.80;93.70;;;;;;5050258;28;20056;-69
2023/08/20 02:29:28;;;;;;;21.60;12.80;;;26.80;93.20;;;;;;5051397;28;20520;-69
2023/08/20 02:32:33;;;;;;;16.95;12.02;;;26.90;93.10;;;;;;5050805;28;20063;-69
2023/08/20 02:35:40;;;;;;;16.65;13.25;;;27.00;93.20;;;;;;5051003;28;20055;-68
2023/08/20 02:38:45;;;;;;;18.23;13.07;;;27.00;92.90;;;;;;5051669;28;20508;-69
2023/08/20 02:41:49;;;;;;;19.08;12.85;;;27.00;93.50;;;;;;5050346;28;20039;-69
2023/08/20 02:44:53;;;;;;;22.05;13.15;;;26.90;93.90;;;;;;5049986;28;20052;-69
2023/08/20 02:47:57;;;;;;;17.67;13.50;;;26.90;94.10;;;;;;5050213;28;20048;-69
2023/08/20 02:51:02;;;;;;;20.70;14.30;;;26.90;94.30;;;;;;5050181;28;20048;-69
2023/08/20 02:54:06;;;;;;;20.90;14.07;;;26.80;94.30;;;;;;5050743;28;20048;-68
2023/08/20 02:57:10;;;;;;;19.05;13.50;;;26.80;94.40;;;;;;5051060;28;20048;-69
2023/08/20 03:00:14;;;;;;;19.95;13.93;;;26.80;94.50;;;;;;5050720;28;20040;-68
2023/08/20 03:03:18;;;;;;;20.38;14.25;;;26.80;94.50;;;;;;5049668;28;20044;-69
2023/08/20 03:06:22;;;;;;;18.20;13.95;;;26.80;94.40;;;;;;5049777;28;20064;-69
2023/08/20 03:09:26;;;;;;;23.08;14.35;;;26.80;94.60;;;;;;5049802;28;20040;-69
2023/08/20 03:12:30;;;;;;;18.02;14.50;;;26.60;94.80;;;;;;5049172;28;20461;-69
2023/08/20 03:15:34;;;;;;;22.67;13.80;;;26.60;95.00;;;;;;5049606;28;20048;-68
2023/08/20 03:18:37;;;;;;;20.88;13.82;;;26.50;95.10;;;;;;5049331;28;20048;-69
2023/08/20 03:21:41;;;;;;;17.98;13.52;;;26.50;95.10;;;;;;5050449;28;20507;-69
2023/08/20 03:24:45;;;;;;;16.10;14.23;;;26.60;95.00;;;;;;5050386;28;20496;-69
2023/08/20 03:27:51;;;;;;;16.58;14.07;;;26.50;94.80;;;;;;5049792;28;20073;-69
2023/08/20 03:30:58;;;;;;;18.75;15.23;;;26.50;95.10;;;;;;5049356;28;20040;-69
2023/08/20 03:34:05;;;;;;;26.85;16.90;;;26.50;95.50;;;;;;5049585;28;20040;-69
2023/08/20 03:37:08;;;;;;;22.30;16.13;;;26.40;95.70;;;;;;5050213;28;20052;-69
2023/08/20 03:40:12;;;;;;;23.77;17.58;;;26.30;95.90;;;;;;5049700;28;20040;-69
2023/08/20 03:43:16;;;;;;;19.63;17.38;;;26.30;96.40;;;;;;5050164;28;20044;-69
2023/08/20 03:46:20;;;;;;;21.50;16.80;;;26.30;96.30;;;;;;5050243;28;20048;-69
2023/08/20 03:49:24;;;;;;;18.17;16.25;;;26.20;96.40;;;;;;5049688;28;20048;-69
2023/08/20 03:52:28;;;;;;;19.60;15.88;;;26.20;96.60;;;;;;5051461;28;20048;-69
2023/08/20 03:55:31;;;;;;;23.77;15.95;;;26.20;96.80;;;;;;5054255;28;20044;-69
2023/08/20 03:58:35;;;;;;;21.08;18.30;;;26.20;96.60;;;;;;5054114;28;20052;-68
2023/08/20 04:01:39;;;;;;;25.52;17.63;;;26.30;96.80;;;;;;5053876;28;20055;-69
2023/08/20 04:04:43;;;;;;;33.13;20.15;;;26.20;96.70;;;;;;5053808;28;20520;-69
2023/08/20 04:07:47;;;;;;;31.92;19.85;;;26.30;96.80;;;;;;5052974;28;20056;-70
2023/08/20 04:10:52;;;;;;;29.77;20.50;;;26.30;96.90;;;;;;5052860;28;20499;-70
2023/08/20 04:13:55;;;;;;;23.85;18.20;;;26.20;97.00;;;;;;5053023;28;20063;-69
2023/08/20 04:16:59;;;;;;;25.70;18.98;;;26.30;96.80;;;;;;5053077;28;20524;-69
2023/08/20 04:20:07;;;;;;;25.63;18.95;;;26.30;96.80;;;;;;5053851;28;20052;-69
2023/08/20 04:23:11;;;;;;;32.72;19.17;;;26.20;96.70;;;;;;5053478;28;20036;-69
2023/08/20 04:26:15;;;;;;;30.92;18.50;;;26.20;96.90;;;;;;5053537;28;20459;-70
2023/08/20 04:29:19;;;;;;;25.77;18.58;;;26.20;97.00;;;;;;5052541;28;20060;-69
2023/08/20 04:32:23;;;;;;;26.40;18.95;;;26.10;96.90;;;;;;5053459;28;20063;-69
2023/08/20 04:35:27;;;;;;;23.42;17.70;;;26.10;96.90;;;;;;5052671;28;20048;-69
2023/08/20 04:38:31;;;;;;;25.05;18.30;;;26.10;96.90;;;;;;5052441;28;20052;-70
2023/08/20 04:41:36;;;;;;;25.95;19.67;;;26.20;96.90;;;;;;5052254;28;20500;-69
2023/08/20 04:44:41;;;;;;;30.33;18.70;;;26.20;96.90;;;;;;5052388;28;20063;-69
2023/08/20 04:47:46;;;;;;;22.50;18.60;;;26.30;96.50;;;;;;5052317;28;20048;-69
2023/08/20 04:50:50;;;;;;;28.30;18.48;;;26.30;96.40;;;;;;5052342;28;20063;-69
2023/08/20 04:53:54;;;;;;;25.70;18.80;;;26.30;96.30;;;;;;5052681;28;20405;-69
2023/08/20 04:56:58;;;;;;;27.30;18.45;;;26.20;96.50;;;;;;5052045;28;20044;-69
2023/08/20 05:00:02;;;;;;;25.10;18.92;;;26.30;96.50;;;;;;5052059;28;20400;-68
2023/08/20 05:03:08;;;;;;;24.83;17.15;;;26.60;96.30;;;;;;5051998;28;20040;-69
2023/08/20 05:06:12;;;;;;;26.05;18.90;;;26.90;95.80;;;;;;5051856;28;20052;-69
2023/08/20 05:09:16;;;;;;;25.17;17.95;;;27.10;95.00;;;;;;5052775;28;20040;-69
2023/08/20 05:12:21;;;;;;;22.58;17.48;;;27.10;95.20;;;;;;5051598;28;20039;-69
2023/08/20 05:15:25;;;;;;;19.25;15.85;;;27.30;95.20;;;;;;5040262;28;20040;-68
2023/08/20 05:18:29;;;;;;;24.17;14.68;;;28.10;94.70;;;;;;5051657;28;20397;-68
2023/08/20 05:21:33;;;;;;;22.65;14.70;;;29.20;92.60;;;;;;5052586;28;20051;-69
2023/08/20 05:24:37;;;;;;;19.17;14.02;;;30.00;90.70;;;;;;5051798;28;20071;-68
2023/08/20 05:27:41;;;;;;;16.90;12.52;;;30.50;90.20;;;;;;5052116;28;20052;-68
2023/08/20 05:30:56;;;;;;;28.67;13.90;;;31.10;87.80;;;;;;5052510;28;20514;-69
2023/08/20 05:34:00;;;;;;;23.15;14.35;;;31.50;86.10;;;;;;5051077;28;20393;-69
2023/08/20 05:37:04;;;;;;;31.80;14.90;;;31.30;86.50;;;;;;5051066;28;20500;-69
2023/08/20 05:40:09;;;;;;;24.73;16.30;;;31.30;86.50;;;;;;5051057;28;20052;-69
2023/08/20 05:43:13;;;;;;;24.90;17.38;;;31.30;86.70;;;;;;5051297;28;20040;-69
2023/08/20 05:46:18;;;;;;;26.75;17.73;;;31.10;87.70;;;;;;5051235;28;20131;-68
2023/08/20 05:49:21;;;;;;;34.03;18.13;;;30.80;88.50;;;;;;5051304;28;20511;-69
2023/08/20 05:52:25;;;;;;;43.53;22.25;;;30.60;89.40;;;;;;5050986;28;20048;-69
2023/08/20 05:55:30;;;;;;;35.33;22.30;;;30.60;89.60;;;;;;5051410;28;20040;-69
2023/08/20 05:58:34;;;;;;;38.00;22.85;;;30.40;90.30;;;;;;5052120;28;20298;-69
2023/08/20 06:01:38;;;;;;;45.85;24.48;;;30.40;90.20;;;;;;5050940;28;20388;-68
2023/08/20 06:04:42;;;;;;;34.58;24.13;;;30.20;90.50;;;;;;5051661;28;20055;-69
2023/08/20 06:07:46;;;;;;;32.45;23.25;;;30.10;90.70;;;;;;5051802;28;20048;-69
2023/08/20 06:10:51;;;;;;;36.25;23.27;;;30.20;90.60;;;;;;5051802;28;20044;-69
2023/08/20 06:13:54;;;;;;;34.67;22.20;;;30.40;90.00;;;;;;5051277;28;20060;-69
2023/08/20 06:16:59;;;;;;;33.97;22.42;;;30.40;88.90;;;;;;5051067;28;20306;-69
2023/08/20 06:20:07;;;;;;;34.28;21.42;;;30.40;89.90;;;;;;5051327;28;20044;-70
2023/08/20 06:23:10;;;;;;;27.27;19.50;;;30.50;89.50;;;;;;5051876;28;20048;-68
2023/08/20 06:26:14;;;;;;;28.00;17.25;;;30.80;89.40;;;;;;5051179;28;20052;-69
2023/08/20 06:29:18;;;;;;;27.83;17.70;;;31.10;87.90;;;;;;5050589;28;20048;-68
2023/08/20 06:32:23;;;;;;;32.00;18.27;;;31.40;86.60;;;;;;5050938;28;20066;-68
2023/08/20 06:35:27;;;;;;;27.25;17.27;;;31.70;86.30;;;;;;5051398;28;20496;-69
2023/08/20 06:38:31;;;;;;;31.65;16.98;;;31.90;85.40;;;;;;5050980;28;20060;-69
2023/08/20 06:41:35;;;;;;;31.70;17.00;;;32.00;84.00;;;;;;5050951;28;20040;-68
2023/08/20 06:44:39;;;;;;;19.63;13.93;;;32.00;84.70;;;;;;5050840;28;20044;-68
2023/08/20 06:47:43;;;;;;;16.38;12.88;;;32.10;82.40;;;;;;5050815;28;20051;-68
2023/08/20 06:50:48;;;;;;;17.67;13.23;;;32.30;79.00;;;;;;5050853;28;20040;-68
2023/08/20 06:53:52;;;;;;;18.73;12.60;;;33.40;76.50;;;;;;5050988;28;20060;-67
2023/08/20 06:56:56;;;;;;;21.77;12.95;;;34.40;73.70;;;;;;5050762;28;20044;-68
2023/08/20 06:59:59;;;;;;;15.95;12.52;;;35.20;72.40;;;;;;5051093;28;20040;-68
2023/08/20 07:03:04;;;;;;;18.58;13.25;;;35.60;69.20;;;;;;5050628;28;20044;-66
2023/08/20 07:06:09;;;;;;;15.38;12.82;;;36.00;68.40;;;;;;5050637;28;20527;-67
2023/08/20 07:09:13;;;;;;;20.00;13.25;;;36.40;67.50;;;;;;5049317;28;20106;-68
2023/08/20 07:12:17;;;;;;;22.00;12.82;;;35.60;69.20;;;;;;5049264;28;20040;-69
2023/08/20 07:15:21;;;;;;;22.95;13.63;;;35.30;70.00;;;;;;5048551;28;20044;-69
2023/08/20 07:18:25;;;;;;;29.52;13.45;;;35.20;69.80;;;;;;5050092;28;20048;-70
2023/08/20 07:21:29;;;;;;;16.90;13.75;;;34.90;70.60;;;;;;5050677;28;20052;-70
2023/08/20 07:24:35;;;;;;;16.75;13.18;;;34.80;70.50;;;;;;5050806;28;20444;-69
2023/08/20 07:27:38;;;;;;;17.58;13.68;;;34.50;70.50;;;;;;5053082;28;20055;-69
2023/08/20 07:30:42;;;;;;;19.70;14.23;;;34.50;71.10;;;;;;5054755;28;20036;-68
2023/08/20 07:33:50;;;;;;;16.60;13.52;;;34.70;71.00;;;;;;5054310;28;20298;-69
2023/08/20 07:36:53;;;;;;;19.98;14.88;;;34.70;70.80;;;;;;5054227;28;20416;-69
2023/08/20 07:39:57;;;;;;;16.05;13.50;;;34.60;68.80;;;;;;5054265;28;20048;-69
2023/08/20 07:43:02;;;;;;;15.98;13.20;;;34.50;69.70;;;;;;5054105;28;20515;-69
2023/08/20 07:46:07;;;;;;;15.77;13.95;;;34.50;67.90;;;;;;5053614;28;20048;-69
2023/08/20 07:49:10;;;;;;;17.02;12.95;;;34.20;67.50;;;;;;5054425;28;20040;-69
2023/08/20 07:52:14;;;;;;;16.95;13.02;;;34.40;68.00;;;;;;5054111;28;20048;-69
2023/08/20 07:55:18;;;;;;;21.35;13.35;;;34.20;68.00;;;;;;5054154;28;20111;-70
2023/08/20 07:58:23;;;;;;;22.80;12.65;;;33.90;68.30;;;;;;5054250;28;20060;-70
2023/08/20 08:01:27;;;;;;;13.95;12.40;;;33.80;67.90;;;;;;5053925;28;20056;-70
2023/08/20 08:04:30;;;;;;;16.30;12.95;;;33.50;68.00;;;;;;5053817;28;20044;-71
2023/08/20 08:07:34;;;;;;;14.95;12.52;;;33.40;68.70;;;;;;5053833;28;20056;-69
2023/08/20 08:10:38;;;;;;;14.88;12.68;;;33.60;68.90;;;;;;5053828;28;20059;-69
2023/08/20 08:13:42;;;;;;;14.55;12.75;;;33.90;69.10;;;;;;5053425;28;20448;-69
2023/08/20 08:16:46;;;;;;;15.57;13.18;;;33.90;68.30;;;;;;5052852;28;20052;-70
2023/08/20 08:19:53;;;;;;;20.58;13.50;;;34.20;68.80;;;;;;5052806;28;20048;-70
2023/08/20 08:22:57;;;;;;;16.48;14.63;;;34.10;68.00;;;;;;5053522;28;20032;-70
2023/08/20 08:26:01;;;;;;;21.27;15.15;;;33.80;68.40;;;;;;5053470;28;20056;-69
2023/08/20 08:29:07;;;;;;;18.92;14.40;;;33.40;69.60;;;;;;5051750;28;20359;-70
2023/08/20 08:32:11;;;;;;;14.80;13.30;;;33.60;70.00;;;;;;5052253;28;20040;-69
2023/08/20 08:35:15;;;;;;;18.23;13.82;;;33.60;69.30;;;;;;5052418;28;20056;-70
2023/08/20 08:38:18;;;;;;;18.30;14.38;;;33.50;69.70;;;;;;5051002;28;20045;-69
2023/08/20 08:41:25;;;;;;;15.00;13.50;;;33.70;69.50;;;;;;5051922;28;20507;-71
2023/08/20 08:44:30;;;;;;;18.25;15.07;;;33.50;69.20;;;;;;5052354;28;20048;-70
2023/08/20 08:47:35;;;;;;;23.60;14.05;;;33.30;70.20;;;;;;5052679;28;20424;-70
2023/08/20 08:50:39;;;;;;;24.92;15.38;;;33.10;70.10;;;;;;5051947;28;20044;-70
2023/08/20 08:53:44;;;;;;;36.72;15.80;;;33.20;70.90;;;;;;5051190;28;20052;-70
2023/08/20 08:56:48;;;;;;;100.80;18.27;;;33.20;70.50;;;;;;5051560;28;20540;-69
2023/08/20 08:59:52;;;;;;;22.88;15.90;;;33.20;70.20;;;;;;5052254;28;20040;-70
2023/08/20 09:02:56;;;;;;;22.80;15.27;;;32.90;70.60;;;;;;5052890;28;20040;-70
2023/08/20 09:06:03;;;;;;;17.50;15.02;;;32.90;71.40;;;;;;5052684;28;20048;-68
2023/08/20 09:09:07;;;;;;;23.95;15.48;;;32.80;71.80;;;;;;5052968;28;20048;-70
2023/08/20 09:12:19;;;;;;;21.05;15.52;;;32.90;71.90;;;;;;5052956;28;20048;-69
2023/08/20 09:15:31;;;;;;;16.98;15.25;;;33.10;71.50;;;;;;5052876;28;20048;-71
2023/08/20 09:18:42;;;;;;;20.45;14.73;;;33.20;71.50;;;;;;5051872;28;20509;-70
2023/08/20 09:21:49;;;;;;;17.80;15.77;;;33.30;70.50;;;;;;5052654;28;20032;-70
2023/08/20 09:24:56;;;;;;;16.55;14.75;;;33.30;70.50;;;;;;5052740;28;20048;-69
2023/08/20 09:28:03;;;;;;;18.13;15.70;;;33.30;71.30;;;;;;5052256;28;20052;-69
2023/08/20 09:31:07;;;;;;;21.88;15.55;;;33.40;71.30;;;;;;5052240;28;20040;-69
2023/08/20 09:34:13;;;;;;;21.00;16.25;;;33.50;71.40;;;;;;5052395;28;20043;-69
2023/08/20 09:37:20;;;;;;;28.27;15.75;;;33.60;71.20;;;;;;5051850;28;20056;-69
2023/08/20 09:40:24;;;;;;;18.00;15.55;;;33.60;70.00;;;;;;5052270;28;20068;-69
2023/08/20 09:43:30;;;;;;;18.10;16.00;;;33.60;70.10;;;;;;5052240;28;20048;-69
2023/08/20 09:46:36;;;;;;;17.88;16.00;;;33.50;70.00;;;;;;5052151;28;20044;-69
2023/08/20 09:49:47;;;;;;;19.05;16.30;;;33.40;70.70;;;;;;5052473;28;20063;-69
2023/08/20 09:53:10;;;;;;;19.73;16.50;;;33.40;70.70;;;;;;5051552;28;20500;-68
2023/08/20 09:56:39;;;;;;;16.33;14.68;;;33.40;70.80;;;;;;5052010;28;20067;-68
2023/08/20 09:59:44;;;;;;;17.48;15.80;;;33.50;70.80;;;;;;5051740;28;20040;-69
2023/08/20 10:02:49;;;;;;;18.77;15.40;;;33.70;69.90;;;;;;5051981;28;20330;-68
2023/08/20 10:05:53;;;;;;;16.42;14.73;;;33.70;70.00;;;;;;5051563;28;20040;-69
2023/08/20 10:08:59;;;;;;;22.05;15.18;;;33.60;68.90;;;;;;5051502;28;20052;-68
2023/08/20 10:12:03;;;;;;;26.58;14.80;;;33.40;69.60;;;;;;5051266;28;20400;-69
2023/08/20 10:15:12;;;;;;;18.05;14.95;;;33.50;69.60;;;;;;5051426;28;20048;-68
2023/08/20 10:18:19;;;;;;;17.23;13.77;;;33.50;69.50;;;;;;5051350;28;20103;-69
2023/08/20 10:21:25;;;;;;;16.40;14.45;;;33.70;68.80;;;;;;5051271;28;20044;-70
2023/08/20 10:24:29;;;;;;;15.13;13.48;;;33.70;68.40;;;;;;5051233;28;20040;-69
2023/08/20 10:27:34;;;;;;;19.30;13.85;;;33.70;68.60;;;;;;5050401;28;20052;-70
2023/08/20 10:30:38;;;;;;;15.32;13.73;;;33.90;68.10;;;;;;5051224;28;20036;-69
2023/08/20 10:33:53;;;;;;;15.52;13.50;;;34.10;69.00;;;;;;5051013;28;20555;-68
2023/08/20 10:36:57;;;;;;;16.67;13.63;;;34.00;67.40;;;;;;5050968;28;20056;-69
2023/08/20 10:40:01;;;;;;;18.65;14.48;;;34.10;67.70;;;;;;5050802;28;20048;-68
2023/08/20 10:43:05;;;;;;;17.52;13.27;;;34.20;67.50;;;;;;5050730;28;20036;-68
2023/08/20 10:46:19;;;;;;;14.65;13.05;;;34.30;67.40;;;;;;5049937;28;20040;-69
2023/08/20 10:49:23;;;;;;;18.95;13.30;;;34.40;67.20;;;;;;5051170;28;20397;-69
2023/08/20 10:52:27;;;;;;;17.40;12.65;;;34.50;66.70;;;;;;5050909;28;20048;-67
2023/08/20 10:55:31;;;;;;;21.60;13.43;;;34.50;67.10;;;;;;5051132;28;20068;-68
2023/08/20 10:58:35;;;;;;;15.10;13.50;;;34.40;67.30;;;;;;5050877;28;20388;-69
2023/08/20 11:01:39;;;;;;;15.20;12.43;;;34.50;67.00;;;;;;5050267;28;20044;-68
2023/08/20 11:04:43;;;;;;;14.10;12.52;;;34.60;66.90;;;;;;5051108;28;20048;-68
2023/08/20 11:07:48;;;;;;;15.55;12.85;;;34.30;67.00;;;;;;5050726;28;20504;-69
2023/08/20 11:10:53;;;;;;;16.20;12.43;;;34.40;66.60;;;;;;5050425;28;20052;-69
2023/08/20 11:14:05;;;;;;;18.67;12.77;;;34.30;65.90;;;;;;5050333;28;20044;-69
2023/08/20 11:17:09;;;;;;;13.40;12.10;;;34.40;67.20;;;;;;5051116;28;20048;-69
2023/08/20 11:20:16;;;;;;;15.27;12.98;;;34.50;65.90;;;;;;5050911;28;20044;-69
2023/08/20 11:23:22;;;;;;;17.45;13.00;;;34.20;66.40;;;;;;5050806;28;20393;-70
2023/08/20 11:26:26;;;;;;;13.90;12.45;;;34.20;65.90;;;;;;5050356;28;20147;-70
2023/08/20 11:29:31;;;;;;;20.98;12.80;;;34.30;65.80;;;;;;5050778;28;20068;-67
2023/08/20 11:32:35;;;;;;;14.18;12.77;;;34.40;66.20;;;;;;5038369;28;20041;-69
2023/08/20 11:35:39;;;;;;;13.80;12.38;;;34.40;65.80;;;;;;5050683;28;20064;-70
2023/08/20 11:38:52;;;;;;;16.27;11.98;;;34.40;65.90;;;;;;5050334;28;20068;-69
2023/08/20 11:41:56;;;;;;;17.52;12.77;;;34.30;65.10;;;;;;5049782;28;20044;-69
2023/08/20 11:45:00;;;;;;;13.75;12.40;;;34.20;64.90;;;;;;5050476;28;20048;-68
2023/08/20 11:48:08;;;;;;;15.18;13.48;;;34.30;65.40;;;;;;5050254;28;20064;-69
2023/08/20 11:51:12;;;;;;;18.33;13.40;;;34.40;66.00;;;;;;5050167;28;20500;-71
2023/08/20 11:54:17;;;;;;;15.50;13.13;;;34.40;65.60;;;;;;5050187;28;20044;-70
2023/08/20 11:57:21;;;;;;;16.80;13.48;;;34.40;65.70;;;;;;5050371;28;20044;-70
2023/08/20 12:00:26;;;;;;;14.00;12.52;;;34.30;65.70;;;;;;5049232;28;20048;-70
2023/08/20 12:03:31;;;;;;;16.02;13.35;;;34.40;65.50;;;;;;5049865;28;20389;-70
2023/08/20 12:06:37;;;;;;;19.58;13.98;;;34.40;66.10;;;;;;5050128;28;20049;-70
2023/08/20 12:09:41;;;;;;;15.02;13.55;;;34.60;66.40;;;;;;5050350;28;20048;-68
2023/08/20 12:12:45;;;;;;;17.98;13.05;;;34.60;65.90;;;;;;5049539;28;20298;-69
2023/08/20 12:15:49;;;;;;;15.15;13.55;;;34.50;66.40;;;;;;5053780;28;20040;-70
2023/08/20 12:18:53;;;;;;;15.68;14.02;;;34.50;67.00;;;;;;5053892;28;20311;-69
2023/08/20 12:21:57;;;;;;;16.00;14.35;;;34.60;67.20;;;;;;5054171;28;20528;-70
2023/08/20 12:25:01;;;;;;;16.85;14.30;;;34.80;66.70;;;;;;5053525;28;20067;-71
2023/08/20 12:28:05;;;;;;;16.63;14.15;;;34.90;67.30;;;;;;5052620;28;20060;-69
2023/08/20 12:31:09;;;;;;;15.80;14.20;;;34.90;66.80;;;;;;5053744;28;20040;-69
2023/08/20 12:34:13;;;;;;;16.88;15.07;;;34.80;66.40;;;;;;5053401;28;20048;-70
2023/08/20 12:37:17;;;;;;;17.73;15.40;;;34.90;67.20;;;;;;5053149;28;20060;-70
2023/08/20 12:40:21;;;;;;;18.63;15.07;;;34.80;67.10;;;;;;5053620;28;20044;-70
2023/08/20 12:43:26;;;;;;;18.23;14.95;;;34.90;66.70;;;;;;5053340;28;20052;-69
2023/08/20 12:46:30;;;;;;;17.58;15.82;;;34.80;67.30;;;;;;5053297;28;20064;-72
2023/08/20 12:49:34;;;;;;;22.15;15.65;;;34.60;67.60;;;;;;5053377;28;20130;-68
2023/08/20 12:52:38;;;;;;;17.73;15.73;;;34.50;67.90;;;;;;5053252;28;20385;-70
2023/08/20 12:55:42;;;;;;;17.17;15.50;;;34.40;68.10;;;;;;5053155;28;20397;-69
2023/08/20 12:58:45;;;;;;;16.85;15.07;;;34.40;68.90;;;;;;5053130;28;20044;-70
2023/08/20 13:01:50;;;;;;;19.55;15.10;;;34.50;67.90;;;;;;5052717;28;20040;-70
2023/08/20 13:04:54;;;;;;;16.30;14.60;;;34.50;67.10;;;;;;5052676;28;20464;-71
2023/08/20 13:07:58;;;;;;;16.58;14.73;;;34.60;67.00;;;;;;5052643;28;20052;-69
2023/08/20 13:11:03;;;;;;;16.58;14.98;;;34.50;67.00;;;;;;5052625;28;20048;-69
2023/08/20 13:14:08;;;;;;;17.13;14.82;;;34.50;67.10;;;;;;5051739;28;20059;-69
2023/08/20 13:17:12;;;;;;;16.80;15.00;;;34.50;67.70;;;;;;5052677;28;20043;-70
2023/08/20 13:20:24;;;;;;;18.42;15.95;;;34.60;67.60;;;;;;5052533;28;20072;-70
2023/08/20 13:23:28;;;;;;;16.75;14.95;;;34.50;67.00;;;;;;5052052;28;20060;-70
2023/08/20 13:26:32;;;;;;;15.25;13.65;;;34.40;67.20;;;;;;5052517;28;20408;-67
2023/08/20 13:29:36;;;;;;;16.85;14.25;;;34.70;66.90;;;;;;5052241;28;20412;-67
2023/08/20 13:32:40;;;;;;;16.08;14.38;;;35.40;65.50;;;;;;5051508;28;20048;-68
2023/08/20 13:35:44;;;;;;;15.95;14.02;;;35.40;65.90;;;;;;5052265;28;20107;-68
2023/08/20 13:38:48;;;;;;;17.05;13.63;;;35.40;65.50;;;;;;5052265;28;20076;-68
2023/08/20 13:41:52;;;;;;;16.63;14.90;;;35.10;66.50;;;;;;5051834;28;20044;-68
2023/08/20 13:44:56;;;;;;;17.95;15.85;;;34.90;66.80;;;;;;5052036;28;20039;-68
2023/08/20 13:48:00;;;;;;;20.52;14.65;;;35.30;66.60;;;;;;5051827;28;20075;-68
2023/08/20 13:51:04;;;;;;;20.67;13.75;;;36.00;66.80;;;;;;5051324;28;20044;-67
2023/08/20 13:54:08;;;;;;;16.23;13.32;;;35.90;66.60;;;;;;5051301;28;20051;-68
2023/08/20 13:57:12;;;;;;;16.95;13.32;;;36.20;66.00;;;;;;5051827;28;20051;-67
2023/08/20 14:00:16;;;;;;;23.95;13.85;;;36.10;66.40;;;;;;5051735;28;20048;-67
2023/08/20 14:03:20;;;;;;;16.15;14.07;;;36.20;64.50;;;;;;5050747;28;20048;-66
2023/08/20 14:06:24;;;;;;;17.38;13.93;;;36.20;64.00;;;;;;5051649;28;20060;-67
2023/08/20 14:09:28;;;;;;;20.02;14.70;;;36.10;62.90;;;;;;5051548;28;20409;-68
2023/08/20 14:12:32;;;;;;;20.13;13.52;;;36.40;61.90;;;;;;5051367;28;20393;-66
2023/08/20 14:15:36;;;;;;;17.13;14.38;;;36.40;61.60;;;;;;5051377;28;20039;-67
2023/08/20 14:18:41;;;;;;;20.30;12.73;;;35.90;61.70;;;;;;5051411;28;20036;-67
2023/08/20 14:21:45;;;;;;;22.27;13.65;;;35.60;62.30;;;;;;5051469;28;20055;-67
2023/08/20 14:24:49;;;;;;;15.35;13.35;;;35.10;63.10;;;;;;5051643;28;20040;-67
2023/08/20 14:27:53;;;;;;;16.67;12.80;;;35.20;63.40;;;;;;5051366;28;20056;-68
2023/08/20 14:30:57;;;;;;;13.25;12.00;;;35.60;62.80;;;;;;5051216;28;20048;-67
2023/08/20 14:34:01;;;;;;;16.42;14.57;;;36.30;61.90;;;;;;5051287;28;20059;-68
2023/08/20 14:37:06;;;;;;;23.50;13.80;;;36.00;61.90;;;;;;5050209;28;20135;-67
2023/08/20 14:40:10;;;;;;;22.40;15.07;;;36.30;61.10;;;;;;5051123;28;20107;-68
2023/08/20 14:43:14;;;;;;;15.48;13.88;;;36.50;61.20;;;;;;5051142;28;20511;-67
2023/08/20 14:46:18;;;;;;;16.65;13.50;;;36.80;61.10;;;;;;5050929;28;20048;-67
2023/08/20 14:49:22;;;;;;;16.05;13.30;;;36.20;61.90;;;;;;5050908;28;20072;-67
2023/08/20 14:52:25;;;;;;;14.25;12.20;;;36.20;62.10;;;;;;5051070;28;20385;-68
2023/08/20 14:55:29;;;;;;;14.23;12.25;;;36.10;61.10;;;;;;5051067;28;20060;-68
2023/08/20 14:58:33;;;;;;;22.17;12.95;;;36.60;60.70;;;;;;5050795;28;20044;-68
2023/08/20 15:01:37;;;;;;;15.05;11.82;;;36.90;60.60;;;;;;5050674;28;20535;-68
2023/08/20 15:04:41;;;;;;;14.75;11.98;;;37.10;60.50;;;;;;5050661;28;20052;-67
2023/08/20 15:07:45;;;;;;;14.57;12.75;;;36.50;60.80;;;;;;5050624;28;20539;-68
2023/08/20 15:10:57;;;;;;;14.48;11.75;;;36.40;61.50;;;;;;5051501;28;20044;-69
2023/08/20 15:14:01;;;;;;;20.38;12.23;;;36.70;60.70;;;;;;5051056;28;20043;-67
2023/08/20 15:17:05;;;;;;;19.42;12.88;;;36.50;61.20;;;;;;5050603;28;20400;-67
2023/08/20 15:20:13;;;;;;;16.20;13.15;;;37.10;60.50;;;;;;5050728;28;20036;-68
2023/08/20 15:23:16;;;;;;;17.20;11.77;;;37.00;60.90;;;;;;5050552;28;20056;-68
2023/08/20 15:26:20;;;;;;;13.88;12.45;;;36.30;60.80;;;;;;5050945;28;20388;-68
2023/08/20 15:29:25;;;;;;;16.83;12.65;;;35.90;61.80;;;;;;5050532;28;20068;-70
2023/08/20 15:32:29;;;;;;;14.23;12.75;;;35.40;62.20;;;;;;5050611;28;20059;-70
2023/08/20 15:35:33;;;;;;;12.80;11.50;;;34.80;63.10;;;;;;5050748;28;20048;-69